createdAt,value
2019-02-16T00:01:32.278Z,43.80
2019-02-16T00:04:01.171Z,43.60
2019-02-16T00:06:30.160Z,43.40
2019-02-16T00:11:35.182Z,43.20
2019-02-16T00:16:49.477Z,43.10
2019-02-16T00:19:18.448Z,43.10
2019-02-16T00:22:10.408Z,43.10
2019-02-16T00:24:43.069Z,43.00
2019-02-16T00:29:47.750Z,43.00
2019-02-16T00:32:17.832Z,43.00
2019-02-16T00:34:56.581Z,42.90
2019-02-16T00:37:25.731Z,42.90
2019-02-16T00:39:54.592Z,42.80
2019-02-16T00:42:23.447Z,42.80
2019-02-16T00:48:00.176Z,42.70
2019-02-16T00:50:29.078Z,42.60
2019-02-16T00:52:58.117Z,42.70
2019-02-16T00:55:28.364Z,42.60
2019-02-16T01:00:46.338Z,42.80
2019-02-16T01:03:15.269Z,42.80
2019-02-16T01:05:44.979Z,42.70
2019-02-16T01:08:14.236Z,42.60
2019-02-16T01:10:45.257Z,42.50
2019-02-16T01:13:14.676Z,42.50
2019-02-16T01:15:45.538Z,42.40
2019-02-16T01:18:14.390Z,42.40
2019-02-16T01:24:05.218Z,42.40
2019-02-16T01:26:34.100Z,42.30
2019-02-16T01:29:10.666Z,42.40
2019-02-16T01:37:01.840Z,42.20
2019-02-16T01:39:32.754Z,42.10
2019-02-16T01:42:05.274Z,42.00
2019-02-16T01:44:34.408Z,42.00
2019-02-16T01:47:04.131Z,41.90
2019-02-16T01:49:55.381Z,41.90
2019-02-16T01:52:24.818Z,41.90
2019-02-16T01:54:55.359Z,41.70
2019-02-16T01:57:24.616Z,41.60
2019-02-16T01:59:54.784Z,41.70
2019-02-16T02:02:45.328Z,41.70
2019-02-16T02:05:14.425Z,41.70
2019-02-16T02:07:43.464Z,41.70
2019-02-16T02:10:12.421Z,41.70
2019-02-16T02:12:41.324Z,41.80
2019-02-16T02:15:11.368Z,41.70
2019-02-16T02:17:40.319Z,41.60
2019-02-16T02:20:09.252Z,41.50
2019-02-16T02:22:39.455Z,41.50
2019-02-16T02:25:14.078Z,41.40
2019-02-16T02:27:40.387Z,41.40
2019-02-16T02:30:10.171Z,41.30
2019-02-16T02:32:39.965Z,41.30
2019-02-16T02:35:08.939Z,41.20
2019-02-16T02:37:55.795Z,41.10
2019-02-16T02:40:27.863Z,41.10
2019-02-16T02:42:56.840Z,41.20
2019-02-16T02:45:40.644Z,41.10
2019-02-16T02:48:12.405Z,41.00
2019-02-16T02:50:47.210Z,40.90
2019-02-16T02:53:16.384Z,41.10
2019-02-16T02:55:45.800Z,41.10
2019-02-16T02:58:24.959Z,41.00
2019-02-16T03:01:02.874Z,41.00
2019-02-16T03:03:30.135Z,41.00
2019-02-16T03:06:01.634Z,41.10
2019-02-16T03:08:32.329Z,41.00
2019-02-16T03:11:26.464Z,40.90
2019-02-16T03:14:07.729Z,40.90
2019-02-16T03:16:36.634Z,41.00
2019-02-16T03:19:06.407Z,41.10
2019-02-16T03:22:02.679Z,41.20
2019-02-16T03:24:32.018Z,41.10
2019-02-16T03:27:18.284Z,41.00
2019-02-16T03:31:46.754Z,40.80
2019-02-16T03:33:49.327Z,40.80
2019-02-16T03:40:14.370Z,40.90
2019-02-16T03:42:43.296Z,40.90
2019-02-16T03:45:24.173Z,40.90
2019-02-16T03:51:12.175Z,40.80
2019-02-16T03:53:42.283Z,40.80
2019-02-16T03:56:15.287Z,40.80
2019-02-16T03:59:20.016Z,40.80
2019-02-16T04:02:02.143Z,40.90
2019-02-16T04:04:32.853Z,40.90
2019-02-16T04:07:02.086Z,41.00
2019-02-16T04:09:30.986Z,41.00
2019-02-16T04:12:08.199Z,41.10
2019-02-16T04:14:37.136Z,41.20
2019-02-16T04:17:06.869Z,41.10
2019-02-16T04:20:22.469Z,41.20
2019-02-16T04:22:29.526Z,41.30
2019-02-16T04:25:05.780Z,41.40
2019-02-16T04:28:24.811Z,41.20
2019-02-16T04:30:20.666Z,41.40
2019-02-16T04:32:53.222Z,41.30
2019-02-16T04:35:24.317Z,41.20
2019-02-16T04:40:41.401Z,41.30
2019-02-16T04:43:10.578Z,41.40
2019-02-16T04:45:58.774Z,41.40
2019-02-16T04:48:35.998Z,41.40
2019-02-16T04:51:07.933Z,41.40
2019-02-16T04:53:38.560Z,41.40
2019-02-16T04:56:07.644Z,41.40
2019-02-16T04:58:36.546Z,41.40
2019-02-16T05:01:10.601Z,41.30
2019-02-16T05:03:39.375Z,41.40
2019-02-16T05:06:28.035Z,41.40
2019-02-16T05:09:02.411Z,41.30
2019-02-16T05:11:34.003Z,41.40
2019-02-16T05:14:04.305Z,41.30
2019-02-16T05:16:33.205Z,41.30
2019-02-16T05:19:42.089Z,41.90
2019-02-16T05:22:32.795Z,41.20
2019-02-16T05:25:03.296Z,41.20
2019-02-16T05:27:49.422Z,41.10
2019-02-16T05:30:20.313Z,41.20
2019-02-16T05:32:50.284Z,41.20
2019-02-16T05:35:26.844Z,41.20
2019-02-16T05:37:55.647Z,41.10
2019-02-16T05:40:29.648Z,41.10
2019-02-16T05:44:54.387Z,41.20
2019-02-16T05:45:51.239Z,41.20
2019-02-16T05:48:21.744Z,41.10
2019-02-16T05:50:55.494Z,41.20
2019-02-16T05:53:27.815Z,41.20
2019-02-16T05:56:08.611Z,41.20
2019-02-16T05:58:39.235Z,41.20
2019-02-16T06:01:09.087Z,41.20
2019-02-16T06:03:40.008Z,41.20
2019-02-16T06:06:18.164Z,41.20
2019-02-16T06:08:53.675Z,41.30
2019-02-16T06:11:24.208Z,41.20
2019-02-16T06:14:03.353Z,41.10
2019-02-16T06:16:35.918Z,41.10
2019-02-16T06:19:05.122Z,41.20
2019-02-16T06:21:37.654Z,41.10
2019-02-16T06:24:06.988Z,41.30
2019-02-16T06:26:36.296Z,41.50
2019-02-16T06:29:05.406Z,41.70
2019-02-16T06:31:36.581Z,41.90
2019-02-16T06:34:12.754Z,42.00
2019-02-16T06:36:43.384Z,42.00
2019-02-16T06:39:15.404Z,42.00
2019-02-16T06:41:46.320Z,42.00
2019-02-16T06:44:23.263Z,42.00
2019-02-16T06:46:48.874Z,42.10
2019-02-16T06:49:23.114Z,42.30
2019-02-16T06:51:55.930Z,42.50
2019-02-16T06:54:32.394Z,42.70
2019-02-16T06:57:23.247Z,42.80
2019-02-16T07:00:14.167Z,43.00
2019-02-16T07:02:43.424Z,43.00
2019-02-16T07:05:12.392Z,42.90
2019-02-16T07:07:46.116Z,42.80
2019-02-16T07:10:16.557Z,42.60
2019-02-16T07:12:48.434Z,42.50
2019-02-16T07:15:29.217Z,42.20
2019-02-16T07:18:35.149Z,42.10
2019-02-16T07:21:39.795Z,41.90
2019-02-16T07:24:12.273Z,41.60
2019-02-16T07:26:45.757Z,41.40
2019-02-16T07:29:16.225Z,41.30
2019-02-16T07:31:49.098Z,41.20
2019-02-16T07:34:19.610Z,41.20
2019-02-16T07:37:10.689Z,41.70
2019-02-16T07:39:59.167Z,41.10
2019-02-16T07:42:48.135Z,41.00
2019-02-16T07:45:26.055Z,40.80
2019-02-16T07:48:16.491Z,40.50
2019-02-16T07:51:07.435Z,40.30
2019-02-16T07:53:59.784Z,40.20
2019-02-16T07:56:47.707Z,40.00
2019-02-16T07:59:39.268Z,39.90
2019-02-16T08:02:26.776Z,39.80
2019-02-16T08:05:23.240Z,39.50
2019-02-16T08:08:17.262Z,39.50
2019-02-16T08:10:57.138Z,39.30
2019-02-16T08:13:45.369Z,39.30
2019-02-16T08:16:29.362Z,39.40
2019-02-16T08:19:08.727Z,39.40
2019-02-16T08:21:56.646Z,39.50
2019-02-16T08:24:45.098Z,39.50
2019-02-16T08:27:34.158Z,39.50
2019-02-16T08:30:22.151Z,39.70
2019-02-16T08:33:37.448Z,39.70
2019-02-16T08:36:28.626Z,39.70
2019-02-16T08:39:22.391Z,39.80
2019-02-16T08:44:59.745Z,39.90
2019-02-16T08:47:41.126Z,40.00
2019-02-16T08:50:45.355Z,39.80
2019-02-16T08:53:36.083Z,39.80
2019-02-16T08:56:15.213Z,39.60
2019-02-16T08:59:03.218Z,39.40
2019-02-16T09:02:09.121Z,39.20
2019-02-16T09:05:03.258Z,39.10
2019-02-16T09:07:43.128Z,39.10
2019-02-16T09:10:35.258Z,39.20
2019-02-16T09:16:09.149Z,39.20
2019-02-16T09:19:01.828Z,39.30
2019-02-16T09:21:53.859Z,39.30
2019-02-16T09:24:57.070Z,39.40
2019-02-16T09:28:05.930Z,39.50
2019-02-16T09:30:59.136Z,39.60
2019-02-16T09:33:40.299Z,39.60
2019-02-16T09:36:23.128Z,39.70
2019-02-16T09:39:11.540Z,39.80
2019-02-16T09:41:48.423Z,39.90
2019-02-16T09:44:25.697Z,40.60
2019-02-16T09:47:54.743Z,40.10
2019-02-16T09:50:33.234Z,40.10
2019-02-16T09:53:08.047Z,40.20
2019-02-16T09:58:29.426Z,40.40
2019-02-16T10:01:13.443Z,40.30
2019-02-16T10:04:14.257Z,40.30
2019-02-16T10:07:10.687Z,40.10
2019-02-16T10:10:00.347Z,40.10
2019-02-16T10:12:54.179Z,40.00
2019-02-16T10:19:22.855Z,39.90
2019-02-16T10:22:07.976Z,39.90
2019-02-16T10:25:17.966Z,39.90
2019-02-16T10:28:24.249Z,40.00
2019-02-16T10:31:04.369Z,40.10
2019-02-16T10:33:40.248Z,40.10
2019-02-16T10:36:27.037Z,40.10
2019-02-16T10:39:18.650Z,40.10
2019-02-16T10:42:41.098Z,40.10
2019-02-16T10:45:44.449Z,40.10
2019-02-16T10:48:32.377Z,40.20
2019-02-16T10:51:20.324Z,40.30
2019-02-16T10:54:32.643Z,40.50
2019-02-16T10:57:11.458Z,40.40
2019-02-16T10:59:58.315Z,40.50
2019-02-16T11:02:50.423Z,40.70
2019-02-16T11:05:34.093Z,40.70
2019-02-16T11:08:12.059Z,40.80
2019-02-16T11:11:04.940Z,40.80
2019-02-16T11:19:31.224Z,40.70
2019-02-16T11:22:28.240Z,40.70
2019-02-16T11:25:32.754Z,40.80
2019-02-16T11:31:51.319Z,40.80
2019-02-16T11:34:48.078Z,40.80
2019-02-16T11:37:36.610Z,40.90
2019-02-16T11:40:25.374Z,41.10
2019-02-16T11:45:52.694Z,41.10
2019-02-16T11:48:35.267Z,41.00
2019-02-16T11:51:19.626Z,41.10
2019-02-16T11:54:00.540Z,41.10
2019-02-16T11:56:37.399Z,41.00
2019-02-16T11:59:15.175Z,40.90
2019-02-16T12:02:01.998Z,40.90
2019-02-16T12:04:49.084Z,41.00
2019-02-16T12:07:29.603Z,40.80
2019-02-16T12:10:19.596Z,40.70
2019-02-16T12:13:19.766Z,40.80
2019-02-16T12:16:15.804Z,41.00
2019-02-16T12:19:15.870Z,41.00
2019-02-16T12:22:06.831Z,41.00
2019-02-16T12:25:05.673Z,41.10
2019-02-16T12:27:54.585Z,41.30
2019-02-16T12:34:11.698Z,41.50
2019-02-16T12:36:58.090Z,41.50
2019-02-16T12:39:46.382Z,41.50
2019-02-16T12:42:34.290Z,41.50
2019-02-16T12:45:22.214Z,41.20
2019-02-16T12:48:15.664Z,41.10
2019-02-16T12:51:02.021Z,41.00
2019-02-16T12:53:49.547Z,41.00
2019-02-16T12:56:41.923Z,41.00
2019-02-16T13:02:36.773Z,40.90
2019-02-16T13:05:38.907Z,40.90
2019-02-16T13:11:15.517Z,40.80
2019-02-16T13:14:03.503Z,41.50
2019-02-16T13:16:47.431Z,41.00
2019-02-16T13:36:43.997Z,41.00
2019-02-16T13:39:34.311Z,41.10
2019-02-16T13:42:30.256Z,41.00
2019-02-16T13:45:13.679Z,41.00
2019-02-16T13:47:51.374Z,41.00
2019-02-16T13:50:34.943Z,41.00
2019-02-16T13:53:36.499Z,41.00
2019-02-16T13:56:30.620Z,41.00
2019-02-16T13:59:07.772Z,41.00
2019-02-16T14:01:42.859Z,41.00
2019-02-16T14:04:36.275Z,40.90
2019-02-16T14:07:26.282Z,41.00
2019-02-16T14:10:15.051Z,40.90
2019-02-16T14:13:15.755Z,40.90
2019-02-16T14:15:59.273Z,40.90
2019-02-16T14:18:40.170Z,40.90
2019-02-16T14:21:08.950Z,41.00
2019-02-16T14:23:45.597Z,41.10
2019-02-16T14:26:14.724Z,41.10
2019-02-16T14:28:45.804Z,41.20
2019-02-16T14:31:16.387Z,41.10
2019-02-16T14:33:47.664Z,41.10
2019-02-16T14:36:16.731Z,41.10
2019-02-16T14:39:04.641Z,41.10
2019-02-16T14:44:24.731Z,41.10
2019-02-16T14:47:04.500Z,41.10
2019-02-16T14:49:33.636Z,41.20
2019-02-16T14:54:52.258Z,41.20
2019-02-16T14:57:23.123Z,41.10
2019-02-16T14:59:54.940Z,41.10
2019-02-16T15:02:26.762Z,41.20
2019-02-16T15:04:56.233Z,41.20
2019-02-16T15:07:25.091Z,41.20
2019-02-16T15:10:01.937Z,41.10
2019-02-16T15:12:42.826Z,41.20
2019-02-16T15:15:19.148Z,41.20
2019-02-16T15:17:50.083Z,41.20
2019-02-16T15:20:19.035Z,41.30
2019-02-16T15:22:55.215Z,41.30
2019-02-16T15:25:25.278Z,41.30
2019-02-16T15:28:00.556Z,41.20
2019-02-16T15:30:29.682Z,41.30
2019-02-16T15:35:49.511Z,41.20
2019-02-16T15:38:18.383Z,41.30
2019-02-16T15:41:01.432Z,41.40
2019-02-16T15:43:36.097Z,41.30
2019-02-16T15:46:05.205Z,41.30
2019-02-16T15:48:38.656Z,41.10
2019-02-16T15:51:07.480Z,41.00
2019-02-16T15:53:42.314Z,41.10
2019-02-16T15:56:14.279Z,41.10
2019-02-16T15:58:44.871Z,41.10
2019-02-16T16:06:52.182Z,41.00
2019-02-16T16:09:43.018Z,41.00
2019-02-16T16:12:24.490Z,41.00
2019-02-16T16:17:57.891Z,41.00
2019-02-16T16:20:46.224Z,41.10
2019-02-16T16:23:40.231Z,41.10
2019-02-16T16:26:27.971Z,41.10
2019-02-16T16:29:13.264Z,41.20
2019-02-16T16:32:13.779Z,41.20
2019-02-16T16:35:16.747Z,41.20
2019-02-16T16:38:15.420Z,41.30
2019-02-16T16:40:54.477Z,41.40
2019-02-16T16:43:33.854Z,41.60
2019-02-16T16:46:24.793Z,41.60
2019-02-16T16:49:20.035Z,41.70
2019-02-16T16:52:29.167Z,41.70
2019-02-16T16:55:10.343Z,41.70
2019-02-16T17:00:38.291Z,41.80
2019-02-16T17:03:33.153Z,41.80
2019-02-16T17:06:12.460Z,41.90
2019-02-16T17:08:57.739Z,42.00
2019-02-16T17:12:00.833Z,41.90
2019-02-16T17:14:39.780Z,41.80
2019-02-16T17:17:16.221Z,41.90
2019-02-16T17:20:13.313Z,41.80
2019-02-16T17:23:00.241Z,41.90
2019-02-16T17:34:14.298Z,41.70
2019-02-16T17:40:24.227Z,41.60
2019-02-16T17:43:17.152Z,41.60
2019-02-16T17:46:25.874Z,41.60
2019-02-16T17:49:37.835Z,41.60
2019-02-16T17:52:43.203Z,41.50
2019-02-16T17:55:34.024Z,41.50
2019-02-16T17:58:17.192Z,41.40
2019-02-16T18:01:53.972Z,41.30
2019-02-16T18:04:36.066Z,41.30
2019-02-16T18:10:32.871Z,41.40
2019-02-16T18:13:19.019Z,41.50
2019-02-16T18:16:09.840Z,41.40
2019-02-16T18:18:51.823Z,41.40
2019-02-16T18:21:37.966Z,41.40
2019-02-16T18:24:15.718Z,41.40
2019-02-16T18:26:56.940Z,41.20
2019-02-16T18:30:01.165Z,41.30
2019-02-16T18:32:53.402Z,41.40
2019-02-16T18:35:50.608Z,41.30
2019-02-16T18:38:48.602Z,41.30
2019-02-16T18:41:43.648Z,41.40
2019-02-16T18:44:59.950Z,41.30
2019-02-16T18:47:45.868Z,41.30
2019-02-16T18:50:52.386Z,41.30
2019-02-16T18:53:28.386Z,41.30
2019-02-16T18:56:27.072Z,41.30
2019-02-16T18:59:20.707Z,41.40
2019-02-16T19:02:01.594Z,41.30
2019-02-16T19:04:43.276Z,41.30
2019-02-16T19:07:25.407Z,41.30
2019-02-16T19:10:11.672Z,41.30
2019-02-16T19:13:04.983Z,41.40
2019-02-16T19:16:08.379Z,41.30
2019-02-16T19:18:55.466Z,41.20
2019-02-16T19:21:53.165Z,41.30
2019-02-16T19:24:49.533Z,41.30
2019-02-16T19:27:38.853Z,41.30
2019-02-16T19:30:42.119Z,41.30
2019-02-16T19:33:21.791Z,41.30
2019-02-16T19:36:32.106Z,41.30
2019-02-16T19:39:21.144Z,41.20
2019-02-16T19:42:07.499Z,41.20
2019-02-16T19:44:50.580Z,41.20
2019-02-16T19:47:38.295Z,41.20
2019-02-16T19:50:19.547Z,41.20
2019-02-16T19:53:22.687Z,41.20
2019-02-16T19:56:23.818Z,41.20
2019-02-16T19:59:04.537Z,41.20
2019-02-16T20:01:55.765Z,41.20
2019-02-16T20:04:55.680Z,41.20
2019-02-16T20:07:45.691Z,41.20
2019-02-16T20:10:27.466Z,41.20
2019-02-16T20:13:10.783Z,41.20
2019-02-16T20:16:04.679Z,41.20
2019-02-16T20:18:41.654Z,41.30
2019-02-16T20:21:47.341Z,41.20
2019-02-16T20:24:35.384Z,41.20
2019-02-16T20:27:20.360Z,41.20
2019-02-16T20:30:04.778Z,41.20
2019-02-16T20:32:40.336Z,41.20
2019-02-16T20:35:26.904Z,41.30
2019-02-16T20:38:14.905Z,41.30
2019-02-16T20:40:51.685Z,41.30
2019-02-16T20:43:27.205Z,41.20
2019-02-16T20:46:08.679Z,41.20
2019-02-16T20:48:58.766Z,41.20
2019-02-16T20:51:45.096Z,41.30
2019-02-16T20:54:30.055Z,41.30
2019-02-16T20:57:23.513Z,41.20
2019-02-16T21:00:05.821Z,41.20
2019-02-16T21:02:45.850Z,41.20
2019-02-16T21:05:44.368Z,41.20
2019-02-16T21:09:02.958Z,41.20
2019-02-16T21:11:54.203Z,41.10
2019-02-16T21:15:00.309Z,41.20
2019-02-16T21:17:42.693Z,41.10
2019-02-16T21:20:41.536Z,41.20
2019-02-16T21:23:46.394Z,41.20
2019-02-16T21:26:40.670Z,41.20
2019-02-16T21:29:16.741Z,41.20
2019-02-16T21:31:55.015Z,41.10
2019-02-16T21:34:47.678Z,41.10
2019-02-16T21:37:37.207Z,41.10
2019-02-16T21:40:36.051Z,41.20
2019-02-16T21:43:52.257Z,41.10
2019-02-16T21:49:16.752Z,41.10
2019-02-16T21:52:04.719Z,41.10
2019-02-16T21:54:38.551Z,41.10
2019-02-16T21:57:24.834Z,41.10
2019-02-16T22:00:14.867Z,41.10
2019-02-16T22:03:07.107Z,41.10
2019-02-16T22:05:45.836Z,41.10
2019-02-16T22:08:42.605Z,41.10
2019-02-16T22:11:27.648Z,41.20
2019-02-16T22:13:56.426Z,41.20
2019-02-16T22:16:27.179Z,41.20
2019-02-16T22:18:59.531Z,41.20
2019-02-16T22:21:28.522Z,41.20
2019-02-16T22:23:59.969Z,41.20
2019-02-16T22:26:29.627Z,41.20
2019-02-16T22:28:58.514Z,41.30
2019-02-16T22:31:30.418Z,41.20
2019-02-16T22:34:02.298Z,41.20
2019-02-16T22:36:30.943Z,41.20
2019-02-16T22:39:00.807Z,41.20
2019-02-16T22:41:30.277Z,41.20
2019-02-16T22:44:07.139Z,41.10
2019-02-16T22:47:13.543Z,41.10
2019-02-16T22:49:31.218Z,41.20
2019-02-16T22:52:00.310Z,41.10
2019-02-16T22:54:29.648Z,41.10
2019-02-16T22:56:59.648Z,41.10
2019-02-16T22:59:39.498Z,41.10
2019-02-16T23:02:10.592Z,41.10
2019-02-16T23:04:39.584Z,41.10
2019-02-16T23:07:09.598Z,41.10
2019-02-16T23:09:40.042Z,41.00
2019-02-16T23:12:08.913Z,41.10
2019-02-16T23:14:37.999Z,41.10
2019-02-16T23:17:06.969Z,41.10
2019-02-16T23:19:35.900Z,41.10
2019-02-16T23:22:04.783Z,41.10
2019-02-16T23:24:33.565Z,41.10
2019-02-16T23:27:23.330Z,41.10
2019-02-16T23:29:53.003Z,41.10
2019-02-16T23:32:22.033Z,41.00
2019-02-16T23:35:05.649Z,41.00
2019-02-16T23:40:30.859Z,41.00
2019-02-16T23:43:00.438Z,41.10
2019-02-16T23:45:46.487Z,41.10
2019-02-16T23:48:37.949Z,41.10
2019-02-16T23:54:13.316Z,41.00
